createdAt,value
2023-02-15T00:01:54.806Z,100297.27
2023-02-15T00:04:24.421Z,100293.91
2023-02-15T00:06:53.075Z,100302.94
2023-02-15T00:09:26.481Z,100302.25
2023-02-15T00:11:56.498Z,100306.29
2023-02-15T00:14:25.912Z,100304.16
2023-02-15T00:16:56.122Z,100306.17
2023-02-15T00:19:24.399Z,100303.90
2023-02-15T00:21:52.982Z,100304.84
2023-02-15T00:24:21.465Z,100309.63
2023-02-15T00:26:52.505Z,100311.55
2023-02-15T00:29:21.610Z,100313.77
2023-02-15T00:31:50.075Z,100311.86
2023-02-15T00:34:20.825Z,100315.16
2023-02-15T00:36:49.733Z,100314.41
2023-02-15T00:39:18.905Z,100316.41
2023-02-15T00:41:47.902Z,100317.23
2023-02-15T00:44:18.120Z,100319.06
2023-02-15T00:46:46.811Z,100321.52
2023-02-15T00:49:15.593Z,100324.56
2023-02-15T00:51:49.302Z,100327.96
2023-02-15T00:54:17.881Z,100323.67
2023-02-15T00:56:46.666Z,100324.02
2023-02-15T00:59:16.793Z,100321.41
2023-02-15T01:01:45.270Z,100323.21
2023-02-15T01:04:14.709Z,100323.30
2023-02-15T01:06:48.274Z,100323.38
2023-02-15T01:09:16.858Z,100321.96
2023-02-15T01:11:45.439Z,100326.16
2023-02-15T01:14:20.989Z,100325.64
2023-02-15T01:16:49.787Z,100331.99
2023-02-15T01:19:18.360Z,100331.34
2023-02-15T01:21:46.949Z,100330.13
2023-02-15T01:24:15.541Z,100335.14
2023-02-15T01:26:44.315Z,100331.12
2023-02-15T01:29:17.916Z,100330.08
2023-02-15T01:31:46.508Z,100329.62
2023-02-15T01:34:16.442Z,100328.54
2023-02-15T01:36:49.998Z,100327.89
2023-02-15T01:39:18.496Z,100328.74
2023-02-15T01:41:47.183Z,100327.84
2023-02-15T01:44:59.525Z,100332.47
2023-02-15T01:47:33.742Z,100336.08
2023-02-15T01:50:15.814Z,100335.74
2023-02-15T01:52:52.375Z,100335.42
2023-02-15T01:55:22.292Z,100335.71
2023-02-15T01:57:50.565Z,100337.14
2023-02-15T02:00:19.773Z,100338.17
2023-02-15T02:02:50.710Z,100342.02
2023-02-15T02:05:21.952Z,100340.38
2023-02-15T02:07:50.427Z,100341.02
2023-02-15T02:10:23.688Z,100343.14
2023-02-15T02:12:55.327Z,100343.37
2023-02-15T02:15:34.768Z,100345.63
2023-02-15T02:18:26.146Z,100346.30
2023-02-15T02:21:00.848Z,100349.98
2023-02-15T02:23:46.959Z,100349.50
2023-02-15T02:26:51.480Z,100348.33
2023-02-15T02:29:40.425Z,100349.55
2023-02-15T02:32:30.654Z,100351.55
2023-02-15T02:35:12.939Z,100352.66
2023-02-15T02:38:07.320Z,100357.54
2023-02-15T02:40:57.204Z,100358.98
2023-02-15T02:43:42.695Z,100357.53
2023-02-15T02:46:30.862Z,100358.86
2023-02-15T02:49:02.696Z,100360.19
2023-02-15T02:51:32.920Z,100361.80
2023-02-15T02:54:03.879Z,100364.79
2023-02-15T02:56:44.742Z,100367.66
2023-02-15T02:59:21.907Z,100367.41
2023-02-15T03:01:52.127Z,100364.92
2023-02-15T03:04:34.108Z,100368.30
2023-02-15T03:07:04.284Z,100364.21
2023-02-15T03:09:44.398Z,100365.48
2023-02-15T03:12:24.346Z,100369.93
2023-02-15T03:15:02.510Z,100374.45
2023-02-15T03:17:34.111Z,100374.73
2023-02-15T03:20:21.953Z,100374.78
2023-02-15T03:22:56.312Z,100379.16
2023-02-15T03:25:35.704Z,100382.60
2023-02-15T03:28:08.646Z,100382.20
2023-02-15T03:30:43.014Z,100381.75
2023-02-15T03:33:11.288Z,100383.12
2023-02-15T03:35:54.727Z,100383.27
2023-02-15T03:38:29.651Z,100383.55
2023-02-15T03:41:18.100Z,100384.79
2023-02-15T03:43:55.182Z,100383.55
2023-02-15T03:46:31.281Z,100383.11
2023-02-15T03:49:11.503Z,100383.48
2023-02-15T03:51:47.168Z,100386.06
2023-02-15T03:54:39.359Z,100388.24
2023-02-15T03:57:37.466Z,100383.27
2023-02-15T04:00:33.283Z,100389.36
2023-02-15T04:03:43.689Z,100386.30
2023-02-15T04:06:11.901Z,100391.05
2023-02-15T04:08:59.781Z,100398.02
2023-02-15T04:19:01.763Z,100409.45
2023-02-15T04:21:50.118Z,100409.11
2023-02-15T04:24:38.051Z,100417.77
2023-02-15T04:27:07.146Z,100421.23
2023-02-15T04:29:41.048Z,100423.52
2023-02-15T04:32:09.788Z,100427.33
2023-02-15T04:34:38.420Z,100426.48
2023-02-15T04:37:07.145Z,100427.36
2023-02-15T04:39:36.409Z,100430.33
2023-02-15T04:42:04.993Z,100437.88
2023-02-15T04:44:34.492Z,100440.52
2023-02-15T04:47:03.073Z,100439.98
2023-02-15T04:49:33.303Z,100441.54
2023-02-15T04:52:02.290Z,100444.66
2023-02-15T04:54:33.090Z,100441.58
2023-02-15T04:57:01.221Z,100446.21
2023-02-15T04:59:35.211Z,100451.31
2023-02-15T05:02:03.700Z,100454.42
2023-02-15T05:04:34.984Z,100460.05
2023-02-15T05:07:03.424Z,100463.29
2023-02-15T05:09:36.915Z,100465.19
2023-02-15T05:12:06.037Z,100466.54
2023-02-15T05:14:34.388Z,100467.04
2023-02-15T05:17:04.516Z,100474.79
2023-02-15T05:19:33.311Z,100476.94
2023-02-15T05:22:01.577Z,100477.36
2023-02-15T05:24:54.015Z,100480.86
2023-02-15T05:27:41.749Z,100479.48
2023-02-15T05:30:13.009Z,100484.85
2023-02-15T05:32:43.228Z,100483.86
2023-02-15T05:35:17.434Z,100482.54
2023-02-15T05:37:46.064Z,100486.15
2023-02-15T05:40:14.602Z,100487.94
2023-02-15T05:42:44.415Z,100489.71
2023-02-15T05:45:13.012Z,100490.48
2023-02-15T05:47:45.474Z,100487.98
2023-02-15T05:50:13.956Z,100491.87
2023-02-15T05:52:42.438Z,100491.43
2023-02-15T05:55:10.990Z,100495.84
2023-02-15T05:57:39.195Z,100499.55
2023-02-15T06:00:09.666Z,100499.08
2023-02-15T06:02:41.541Z,100503.73
2023-02-15T06:05:10.476Z,100494.14
2023-02-15T06:07:38.715Z,100502.41
2023-02-15T06:10:08.677Z,100500.70
2023-02-15T06:12:37.976Z,100504.72
2023-02-15T06:15:10.576Z,100504.75
2023-02-15T06:17:42.727Z,100505.89
2023-02-15T06:20:11.812Z,100510.90
2023-02-15T06:22:40.597Z,100510.77
2023-02-15T06:25:11.327Z,100513.96
2023-02-15T06:27:42.122Z,100518.98
2023-02-15T06:30:11.540Z,100519.52
2023-02-15T06:32:40.150Z,100522.27
2023-02-15T06:35:09.061Z,100524.09
2023-02-15T06:37:40.405Z,100525.80
2023-02-15T06:40:09.811Z,100518.77
2023-02-15T06:42:38.101Z,100520.37
2023-02-15T06:45:08.472Z,100519.59
2023-02-15T06:47:36.986Z,100521.15
2023-02-15T06:50:06.538Z,100523.85
2023-02-15T06:52:35.064Z,100526.09
2023-02-15T06:55:03.648Z,100529.01
2023-02-15T06:57:33.536Z,100527.21
2023-02-15T07:00:02.554Z,100527.51
2023-02-15T07:02:31.163Z,100524.20
2023-02-15T07:05:00.112Z,100525.41
2023-02-15T07:07:29.121Z,100527.90
2023-02-15T07:09:57.599Z,100529.26
2023-02-15T07:12:45.451Z,100521.64
2023-02-15T07:15:18.121Z,100523.97
2023-02-15T07:17:47.007Z,100527.61
2023-02-15T07:20:19.915Z,100527.54
2023-02-15T07:22:48.476Z,100528.94
2023-02-15T07:25:17.391Z,100527.99
2023-02-15T07:27:46.400Z,100531.65
2023-02-15T07:30:17.269Z,100533.91
2023-02-15T07:33:06.514Z,100533.05
2023-02-15T07:35:34.964Z,100535.76
2023-02-15T07:38:03.420Z,100533.36
2023-02-15T07:40:32.070Z,100536.86
2023-02-15T07:43:00.978Z,100537.77
2023-02-15T07:45:29.608Z,100539.77
2023-02-15T07:48:03.844Z,100539.57
2023-02-15T07:50:32.790Z,100544.70
2023-02-15T07:53:03.113Z,100545.33
2023-02-15T07:55:31.608Z,100542.06
2023-02-15T07:58:00.301Z,100541.35
2023-02-15T08:00:30.983Z,100543.62
2023-02-15T08:03:14.739Z,100542.94
2023-02-15T08:05:44.745Z,100542.47
2023-02-15T08:08:31.762Z,100545.48
2023-02-15T08:11:28.234Z,100550.27
2023-02-15T08:14:15.487Z,100552.95
2023-02-15T08:16:48.816Z,100554.76
2023-02-15T08:19:33.084Z,100555.85
2023-02-15T08:22:08.034Z,100554.26
2023-02-15T08:24:40.068Z,100554.51
2023-02-15T08:27:09.311Z,100559.42
2023-02-15T08:29:38.806Z,100557.52
2023-02-15T08:32:09.750Z,100560.96
2023-02-15T08:34:40.723Z,100563.08
2023-02-15T08:37:09.079Z,100558.57
2023-02-15T08:39:39.126Z,100562.73
2023-02-15T08:42:07.664Z,100569.81
2023-02-15T08:44:37.541Z,100570.66
2023-02-15T08:47:08.493Z,100572.70
2023-02-15T08:49:37.014Z,100570.58
2023-02-15T08:52:05.836Z,100568.30
2023-02-15T08:54:36.625Z,100569.77
2023-02-15T08:57:05.344Z,100570.77
2023-02-15T09:06:34.336Z,100569.86
2023-02-15T09:09:05.030Z,100565.54
2023-02-15T09:11:36.895Z,100564.02
2023-02-15T09:14:14.835Z,100565.47
2023-02-15T09:16:50.777Z,100564.04
2023-02-15T09:19:20.187Z,100565.06
2023-02-15T09:21:48.509Z,100556.77
2023-02-15T09:24:17.502Z,100554.87
2023-02-15T09:26:49.597Z,100554.65
2023-02-15T09:29:18.432Z,100556.18
2023-02-15T09:31:48.237Z,100551.42
2023-02-15T09:34:18.374Z,100553.28
2023-02-15T09:36:47.384Z,100554.80
2023-02-15T09:39:16.601Z,100550.77
2023-02-15T09:41:55.150Z,100552.45
2023-02-15T09:44:52.031Z,100559.27
2023-02-15T09:47:34.066Z,100556.73
2023-02-15T09:50:27.770Z,100558.77
2023-02-15T09:53:33.687Z,100553.92
2023-02-15T09:56:29.723Z,100555.52
2023-02-15T09:59:04.935Z,100562.85
2023-02-15T10:01:53.655Z,100564.16
2023-02-15T10:04:41.451Z,100563.11
2023-02-15T10:07:32.683Z,100563.05
2023-02-15T10:10:20.745Z,100566.95
2023-02-15T10:13:19.943Z,100569.06
2023-02-15T10:16:01.072Z,100567.65
2023-02-15T10:19:11.184Z,100569.15
2023-02-15T10:21:52.084Z,100566.21
2023-02-15T10:24:31.873Z,100564.11
2023-02-15T10:27:09.001Z,100566.37
2023-02-15T10:29:38.506Z,100568.48
2023-02-15T10:32:24.665Z,100569.10
2023-02-15T10:35:23.684Z,100571.67
2023-02-15T10:39:01.036Z,100576.50
2023-02-15T10:41:49.553Z,100577.23
2023-02-15T10:44:22.297Z,100574.45
2023-02-15T10:47:10.608Z,100575.09
2023-02-15T10:50:07.509Z,100577.00
2023-02-15T10:53:13.442Z,100574.88
2023-02-15T10:56:01.947Z,100572.15
2023-02-15T10:58:53.663Z,100574.51
2023-02-15T11:01:48.566Z,100579.55
2023-02-15T11:04:39.656Z,100579.23
2023-02-15T11:07:25.440Z,100576.27
2023-02-15T11:09:58.299Z,100579.94
2023-02-15T11:12:26.083Z,100578.15
2023-02-15T11:15:13.297Z,100579.98
2023-02-15T11:17:44.543Z,100581.61
2023-02-15T11:20:18.616Z,100577.75
2023-02-15T11:22:49.332Z,100579.80
2023-02-15T11:25:37.437Z,100580.51
2023-02-15T11:28:06.143Z,100578.56
2023-02-15T11:30:45.350Z,100579.41
2023-02-15T11:33:19.046Z,100581.55
2023-02-15T11:36:00.549Z,100584.06
2023-02-15T11:38:33.217Z,100582.21
2023-02-15T11:41:04.215Z,100581.38
2023-02-15T11:43:37.662Z,100585.14
2023-02-15T11:46:04.624Z,100589.47
2023-02-15T11:48:32.371Z,100586.73
2023-02-15T11:51:01.029Z,100591.45
2023-02-15T11:53:29.612Z,100590.95
2023-02-15T11:55:57.057Z,100590.86
2023-02-15T11:58:29.005Z,100593.63
2023-02-15T12:01:00.964Z,100594.96
2023-02-15T12:03:50.289Z,100599.25
2023-02-15T12:06:25.317Z,100601.41
2023-02-15T12:09:10.959Z,100603.92
2023-02-15T12:11:39.986Z,100606.90
2023-02-15T12:14:09.085Z,100607.52
2023-02-15T12:16:45.149Z,100611.41
2023-02-15T12:19:33.716Z,100616.94
2023-02-15T12:22:05.149Z,100621.24
2023-02-15T12:24:37.868Z,100622.86
2023-02-15T12:27:19.214Z,100627.43
2023-02-15T12:29:51.515Z,100621.55
2023-02-15T12:32:39.755Z,100625.69
2023-02-15T12:35:34.182Z,100623.26
2023-02-15T12:38:20.616Z,100617.93
2023-02-15T12:41:04.799Z,100622.72
2023-02-15T12:43:34.464Z,100624.09
2023-02-15T12:46:14.944Z,100624.31
2023-02-15T12:48:41.860Z,100626.78
2023-02-15T12:51:12.368Z,100629.86
2023-02-15T13:01:46.512Z,100642.63
2023-02-15T13:04:26.977Z,100644.03
2023-02-15T13:06:57.081Z,100644.84
2023-02-15T13:09:32.894Z,100646.23
2023-02-15T13:12:13.158Z,100648.88
2023-02-15T13:14:44.133Z,100655.01
2023-02-15T13:17:11.024Z,100657.21
2023-02-15T13:19:42.320Z,100660.70
2023-02-15T13:22:31.845Z,100663.67
2023-02-15T13:25:09.955Z,100660.86
2023-02-15T13:27:39.418Z,100666.23
2023-02-15T13:30:21.952Z,100672.89
2023-02-15T13:32:50.293Z,100674.21
2023-02-15T13:35:18.186Z,100678.98
2023-02-15T13:38:03.620Z,100678.27
2023-02-15T13:40:34.866Z,100677.88
2023-02-15T13:43:19.925Z,100676.90
2023-02-15T13:46:08.732Z,100681.22
2023-02-15T13:48:50.861Z,100681.52
2023-02-15T13:51:41.225Z,100689.17
2023-02-15T13:54:36.074Z,100685.78
2023-02-15T13:57:16.508Z,100687.52
2023-02-15T13:59:47.191Z,100685.86
2023-02-15T14:02:52.194Z,100687.94
2023-02-15T14:05:29.637Z,100692.17
2023-02-15T14:08:14.137Z,100698.83
2023-02-15T14:10:51.113Z,100698.88
2023-02-15T14:13:50.441Z,100699.09
2023-02-15T14:16:33.391Z,100702.02
2023-02-15T14:19:13.865Z,100707.96
2023-02-15T14:22:08.784Z,100711.42
2023-02-15T14:24:43.679Z,100712.21
2023-02-15T14:27:22.670Z,100713.91
2023-02-15T14:30:00.634Z,100714.64
2023-02-15T14:32:47.058Z,100713.77
2023-02-15T14:35:15.802Z,100718.39
2023-02-15T14:37:42.697Z,100722.98
2023-02-15T14:40:37.059Z,100728.58
2023-02-15T14:43:15.900Z,100731.44
2023-02-15T14:45:55.375Z,100735.64
2023-02-15T14:48:26.821Z,100730.48
2023-02-15T14:50:53.892Z,100736.52
2023-02-15T14:53:27.221Z,100737.14
2023-02-15T14:56:14.224Z,100741.20
2023-02-15T14:58:50.586Z,100745.09
2023-02-15T15:01:18.427Z,100744.66
2023-02-15T15:03:53.687Z,100746.77
2023-02-15T15:06:37.615Z,100750.62
2023-02-15T15:09:25.115Z,100752.48
2023-02-15T15:11:53.346Z,100755.89
2023-02-15T15:14:33.216Z,100759.09
2023-02-15T15:17:01.538Z,100765.81
2023-02-15T15:19:52.947Z,100768.48
2023-02-15T15:22:24.115Z,100768.50
2023-02-15T15:24:51.652Z,100770.47
2023-02-15T15:27:45.844Z,100771.80
2023-02-15T15:30:24.087Z,100772.91
2023-02-15T15:32:54.680Z,100777.52
2023-02-15T15:35:30.895Z,100777.91
2023-02-15T15:38:22.604Z,100774.98
2023-02-15T15:40:59.512Z,100779.54
2023-02-15T15:44:06.358Z,100781.48
2023-02-15T15:46:46.765Z,100785.73
2023-02-15T15:49:19.697Z,100787.16
2023-02-15T15:51:47.017Z,100787.48
2023-02-15T15:54:22.181Z,100790.78
2023-02-15T15:57:00.217Z,100794.63
2023-02-15T15:59:30.117Z,100792.74
2023-02-15T16:01:57.307Z,100802.67
2023-02-15T16:04:32.826Z,100801.88
2023-02-15T16:07:18.222Z,100803.09
2023-02-15T16:09:55.625Z,100808.96
2023-02-15T16:12:23.843Z,100808.26
2023-02-15T16:14:53.993Z,100814.94
2023-02-15T16:17:25.559Z,100812.44
2023-02-15T16:19:58.284Z,100814.60
2023-02-15T16:22:27.231Z,100815.74
2023-02-15T16:25:06.507Z,100818.59
2023-02-15T16:27:47.107Z,100816.42
2023-02-15T16:30:28.860Z,100816.32
2023-02-15T16:33:09.274Z,100818.73
2023-02-15T16:35:40.790Z,100820.29
2023-02-15T16:38:11.787Z,100814.98
2023-02-15T16:40:53.532Z,100822.71
2023-02-15T16:43:25.417Z,100827.08
2023-02-15T16:45:53.336Z,100824.55
2023-02-15T16:48:24.540Z,100829.27
2023-02-15T16:51:00.435Z,100831.04
2023-02-15T16:53:28.844Z,100831.30
2023-02-15T16:55:57.973Z,100832.00
2023-02-15T16:58:38.111Z,100837.95
2023-02-15T17:01:07.605Z,100836.70
2023-02-15T17:03:35.815Z,100840.11
2023-02-15T17:06:03.777Z,100843.88
2023-02-15T17:08:33.268Z,100845.18
2023-02-15T17:11:00.533Z,100847.77
2023-02-15T17:13:31.831Z,100848.95
2023-02-15T17:15:59.083Z,100846.89
2023-02-15T17:18:27.213Z,100849.16
2023-02-15T17:21:09.283Z,100849.98
2023-02-15T17:23:50.045Z,100848.40
2023-02-15T17:26:24.634Z,100853.20
2023-02-15T17:28:52.811Z,100855.58
2023-02-15T17:31:21.023Z,100854.02
2023-02-15T17:33:48.656Z,100855.86
2023-02-15T17:36:22.936Z,100851.23
2023-02-15T17:39:00.809Z,100852.30
2023-02-15T17:41:34.713Z,100853.39
2023-02-15T17:44:03.452Z,100855.45
2023-02-15T17:46:35.754Z,100853.29
2023-02-15T17:49:03.192Z,100854.48
2023-02-15T17:51:40.403Z,100856.09
2023-02-15T17:54:31.846Z,100858.95
2023-02-15T17:57:10.125Z,100858.77
2023-02-15T17:59:56.089Z,100858.61
2023-02-15T18:02:42.114Z,100857.21
2023-02-15T18:05:34.157Z,100857.39
2023-02-15T18:08:20.313Z,100863.41
2023-02-15T18:11:07.064Z,100860.43
2023-02-15T18:13:35.035Z,100866.06
2023-02-15T18:16:02.643Z,100863.49
2023-02-15T18:18:30.001Z,100863.60
2023-02-15T18:20:57.099Z,100860.47
2023-02-15T18:23:23.990Z,100862.55
2023-02-15T18:25:50.927Z,100864.46
2023-02-15T18:28:19.937Z,100864.66
2023-02-15T18:30:46.821Z,100863.05
2023-02-15T18:33:42.196Z,100861.70
2023-02-15T18:36:13.693Z,100858.59
2023-02-15T18:38:44.394Z,100860.34
2023-02-15T18:41:18.806Z,100858.02
2023-02-15T18:43:48.474Z,100858.48
2023-02-15T18:46:16.715Z,100860.30
2023-02-15T18:48:45.863Z,100863.42
2023-02-15T18:51:20.076Z,100869.85
2023-02-15T18:53:47.874Z,100870.27
2023-02-15T18:56:16.939Z,100871.64
2023-02-15T18:58:47.175Z,100871.98
2023-02-15T19:01:18.592Z,100870.09
2023-02-15T19:03:52.657Z,100874.64
2023-02-15T19:06:21.441Z,100871.05
2023-02-15T19:08:49.839Z,100866.11
2023-02-15T19:11:18.900Z,100868.85
2023-02-15T19:13:48.360Z,100866.66
2023-02-15T19:16:35.282Z,100865.06
2023-02-15T19:19:02.438Z,100865.44
2023-02-15T19:21:30.765Z,100863.78
2023-02-15T19:24:03.301Z,100865.10
2023-02-15T19:26:44.503Z,100865.51
2023-02-15T19:29:14.598Z,100863.38
2023-02-15T19:31:42.368Z,100863.38
2023-02-15T19:34:16.772Z,100865.58
2023-02-15T19:36:45.447Z,100864.60
2023-02-15T19:39:23.905Z,100862.06
2023-02-15T19:41:59.359Z,100859.30
2023-02-15T19:44:26.575Z,100858.23
2023-02-15T19:46:54.805Z,100860.86
2023-02-15T19:49:21.753Z,100858.56
2023-02-15T19:51:52.922Z,100856.98
2023-02-15T19:54:31.334Z,100855.62
2023-02-15T19:56:58.705Z,100853.80
2023-02-15T19:59:33.646Z,100852.79
2023-02-15T20:02:01.317Z,100850.27
2023-02-15T20:04:29.643Z,100852.76
2023-02-15T20:06:57.484Z,100853.33
2023-02-15T20:09:37.572Z,100850.00
2023-02-15T20:12:26.799Z,100846.88
2023-02-15T20:14:56.669Z,100852.69
2023-02-15T20:17:28.705Z,100851.40
2023-02-15T20:20:05.349Z,100848.63
2023-02-15T20:22:33.810Z,100848.85
2023-02-15T20:25:02.082Z,100856.02
2023-02-15T20:27:34.748Z,100851.09
2023-02-15T20:30:01.791Z,100853.96
2023-02-15T20:32:29.499Z,100853.52
2023-02-15T20:35:02.000Z,100849.15
2023-02-15T20:37:32.360Z,100852.05
2023-02-15T20:40:03.701Z,100854.95
2023-02-15T20:42:36.657Z,100853.23
2023-02-15T20:45:21.596Z,100850.84
2023-02-15T20:47:50.511Z,100848.57
2023-02-15T20:50:18.133Z,100849.88
2023-02-15T20:52:45.522Z,100850.98
2023-02-15T20:55:16.701Z,100848.34
2023-02-15T20:57:51.012Z,100853.48
2023-02-15T21:00:28.870Z,100852.46
2023-02-15T21:02:58.759Z,100853.40
2023-02-15T21:05:33.102Z,100857.45
2023-02-15T21:08:15.836Z,100859.20
2023-02-15T21:10:45.242Z,100859.60
2023-02-15T21:13:19.258Z,100858.58
2023-02-15T21:15:52.969Z,100861.73
2023-02-15T21:18:25.629Z,100859.95
2023-02-15T21:20:57.905Z,100860.86
2023-02-15T21:23:33.316Z,100863.31
2023-02-15T21:26:00.387Z,100862.27
2023-02-15T21:28:28.227Z,100858.64
2023-02-15T21:30:57.376Z,100859.58
2023-02-15T21:33:25.050Z,100859.71
2023-02-15T21:35:57.838Z,100854.79
2023-02-15T21:38:27.049Z,100859.42
2023-02-15T21:41:21.873Z,100858.83
2023-02-15T21:44:07.643Z,100856.83
2023-02-15T21:46:53.719Z,100859.73
2023-02-15T21:49:20.796Z,100861.41
2023-02-15T21:52:11.448Z,100861.66
2023-02-15T21:54:42.376Z,100862.16
2023-02-15T21:57:20.534Z,100863.61
2023-02-15T21:59:49.292Z,100866.46
2023-02-15T22:02:29.867Z,100872.05
2023-02-15T22:05:01.316Z,100866.45
2023-02-15T22:07:28.528Z,100870.20
2023-02-15T22:09:55.822Z,100869.38
2023-02-15T22:12:23.054Z,100869.77
2023-02-15T22:14:51.060Z,100871.42
2023-02-15T22:17:20.716Z,100875.81
2023-02-15T22:19:48.404Z,100875.27
2023-02-15T22:22:21.560Z,100875.39
2023-02-15T22:24:48.503Z,100874.29
2023-02-15T22:27:26.026Z,100878.92
2023-02-15T22:29:54.255Z,100883.21
2023-02-15T22:32:25.847Z,100884.45
2023-02-15T22:34:56.972Z,100887.02
2023-02-15T22:37:23.847Z,100886.95
2023-02-15T22:39:51.110Z,100889.87
2023-02-15T22:42:27.661Z,100888.78
2023-02-15T22:44:55.398Z,100886.55
2023-02-15T22:47:27.230Z,100888.37
2023-02-15T22:49:54.490Z,100895.47
2023-02-15T22:52:25.102Z,100893.14
2023-02-15T22:55:01.888Z,100893.27
2023-02-15T22:57:30.064Z,100898.45
2023-02-15T22:59:57.145Z,100901.65
2023-02-15T23:02:24.974Z,100901.45
2023-02-15T23:04:53.152Z,100900.27
2023-02-15T23:07:22.706Z,100901.95
2023-02-15T23:09:50.719Z,100903.06
2023-02-15T23:12:25.000Z,100904.02
2023-02-15T23:14:52.385Z,100906.11
2023-02-15T23:17:29.642Z,100910.44
2023-02-15T23:19:56.676Z,100916.17
2023-02-15T23:22:23.657Z,100915.31
2023-02-15T23:24:51.985Z,100920.88
2023-02-15T23:27:37.565Z,100921.94
2023-02-15T23:30:06.684Z,100923.98
2023-02-15T23:32:34.005Z,100925.50
2023-02-15T23:35:01.531Z,100926.02
2023-02-15T23:37:28.601Z,100931.20
2023-02-15T23:40:16.690Z,100930.66
2023-02-15T23:42:44.013Z,100935.23
2023-02-15T23:45:22.425Z,100937.95
2023-02-15T23:48:08.621Z,100940.88
2023-02-15T23:50:35.780Z,100936.65
2023-02-15T23:53:03.061Z,100944.17
2023-02-15T23:55:40.133Z,100944.15
2023-02-15T23:58:14.318Z,100945.11
